createdAt,value
2018-01-06T00:00:10.261Z,0
2018-01-06T00:01:10.921Z,0
2018-01-06T00:02:11.587Z,0
2018-01-06T00:03:12.242Z,0
2018-01-06T00:04:12.902Z,0
2018-01-06T00:05:13.563Z,0
2018-01-06T00:06:14.224Z,0
2018-01-06T00:07:14.883Z,0
2018-01-06T00:08:15.544Z,0
2018-01-06T00:09:16.202Z,0
2018-01-06T00:10:16.865Z,0
2018-01-06T00:11:17.526Z,0
2018-01-06T00:12:18.186Z,0
2018-01-06T00:13:18.848Z,0
2018-01-06T00:14:19.508Z,0
2018-01-06T00:15:20.169Z,0
2018-01-06T00:16:20.868Z,0
2018-01-06T00:17:21.524Z,0
2018-01-06T00:18:22.184Z,0
2018-01-06T00:19:22.845Z,0
2018-01-06T00:20:23.505Z,0
2018-01-06T00:21:24.164Z,0
2018-01-06T00:22:24.823Z,0
2018-01-06T00:23:25.486Z,0
2018-01-06T00:24:26.143Z,0
2018-01-06T00:25:26.803Z,0
2018-01-06T00:26:27.463Z,0
2018-01-06T00:27:28.122Z,0
2018-01-06T00:28:28.781Z,0
2018-01-06T00:29:29.441Z,0
2018-01-06T00:30:30.102Z,0
2018-01-06T00:31:30.763Z,0
2018-01-06T00:32:31.424Z,0
2018-01-06T00:33:32.121Z,0
2018-01-06T00:34:32.781Z,0
2018-01-06T00:35:33.443Z,0
2018-01-06T00:36:34.104Z,0
2018-01-06T00:37:34.765Z,0
2018-01-06T00:38:35.426Z,0
2018-01-06T00:39:36.087Z,0
2018-01-06T00:40:36.747Z,0
2018-01-06T00:41:37.409Z,0
2018-01-06T00:42:38.070Z,0
2018-01-06T00:43:38.730Z,0
2018-01-06T00:44:39.389Z,0
2018-01-06T00:45:40.049Z,0
2018-01-06T00:46:40.708Z,0
2018-01-06T00:47:41.405Z,0
2018-01-06T00:48:42.066Z,0
2018-01-06T00:49:42.728Z,0
2018-01-06T00:50:43.389Z,0
2018-01-06T00:51:44.054Z,0
2018-01-06T00:52:44.748Z,0
2018-01-06T00:53:45.414Z,0
2018-01-06T00:54:46.072Z,0
2018-01-06T00:55:46.734Z,0
2018-01-06T00:56:47.396Z,0
2018-01-06T00:57:48.057Z,0
2018-01-06T00:58:48.721Z,0
2018-01-06T00:59:49.418Z,0
2018-01-06T01:00:50.079Z,0
2018-01-06T01:01:50.748Z,0
2018-01-06T01:02:51.404Z,0
2018-01-06T01:03:52.067Z,0
2018-01-06T01:04:52.729Z,0
2018-01-06T01:05:53.389Z,0
2018-01-06T01:06:54.051Z,0
2018-01-06T01:07:54.714Z,0
2018-01-06T01:08:55.376Z,0
2018-01-06T01:09:56.037Z,0
2018-01-06T01:10:56.699Z,0
2018-01-06T01:11:57.364Z,0
2018-01-06T01:12:58.022Z,0
2018-01-06T01:13:58.684Z,0
2018-01-06T01:14:59.346Z,0
2018-01-06T01:16:00.010Z,0
2018-01-06T01:17:00.670Z,0
2018-01-06T01:18:01.365Z,0
2018-01-06T01:19:02.026Z,0
2018-01-06T01:20:02.690Z,0
2018-01-06T01:21:03.352Z,0
2018-01-06T01:22:04.015Z,0
2018-01-06T01:23:04.677Z,0
2018-01-06T01:24:05.338Z,0
2018-01-06T01:25:05.998Z,0
2018-01-06T01:26:06.659Z,0
2018-01-06T01:27:07.321Z,0
2018-01-06T01:28:07.984Z,0
2018-01-06T01:29:08.644Z,0
2018-01-06T01:30:09.306Z,0
2018-01-06T01:31:09.968Z,0
2018-01-06T01:32:10.679Z,0
2018-01-06T01:33:11.338Z,0
2018-01-06T01:34:11.998Z,0
2018-01-06T01:35:12.659Z,0
2018-01-06T01:36:13.319Z,0
2018-01-06T01:37:14.032Z,0
2018-01-06T01:38:14.690Z,0
2018-01-06T01:39:15.349Z,0
2018-01-06T01:40:16.014Z,0
2018-01-06T01:41:16.708Z,0
2018-01-06T01:42:17.369Z,0
2018-01-06T01:43:18.036Z,0
2018-01-06T01:44:18.694Z,0
2018-01-06T01:45:19.355Z,0
2018-01-06T01:46:20.017Z,0
2018-01-06T01:47:20.680Z,0
2018-01-06T01:48:21.347Z,0
2018-01-06T01:49:22.004Z,0
2018-01-06T01:50:22.665Z,0
2018-01-06T01:51:23.326Z,0
2018-01-06T01:52:23.987Z,0
2018-01-06T01:53:24.650Z,0
2018-01-06T01:54:25.310Z,0
2018-01-06T01:55:25.971Z,0
2018-01-06T01:56:26.671Z,0
2018-01-06T01:57:27.388Z,0
2018-01-06T01:58:28.049Z,0
2018-01-06T01:59:28.704Z,0
2018-01-06T02:00:29.365Z,0
2018-01-06T02:01:30.026Z,0
2018-01-06T02:02:30.738Z,0
2018-01-06T02:03:31.399Z,0
2018-01-06T02:04:32.061Z,0
2018-01-06T02:05:32.723Z,0
2018-01-06T02:06:33.385Z,0
2018-01-06T02:07:34.098Z,0
2018-01-06T02:08:34.782Z,0
2018-01-06T02:09:35.420Z,0
2018-01-06T02:10:36.081Z,0
2018-01-06T02:11:36.743Z,0
2018-01-06T02:12:37.407Z,0
2018-01-06T02:13:38.063Z,0
2018-01-06T02:14:38.724Z,0
2018-01-06T02:15:39.384Z,0
2018-01-06T02:16:40.048Z,0
2018-01-06T02:17:40.707Z,0
2018-01-06T02:18:41.368Z,0
2018-01-06T02:19:42.029Z,0
2018-01-06T02:20:42.693Z,0
2018-01-06T02:21:43.389Z,0
2018-01-06T02:22:44.051Z,0
2018-01-06T02:23:44.712Z,0
2018-01-06T02:24:45.375Z,0
2018-01-06T02:25:46.036Z,0
2018-01-06T02:26:46.698Z,0
2018-01-06T02:27:47.408Z,0
2018-01-06T02:28:48.022Z,0
2018-01-06T02:29:48.683Z,0
2018-01-06T02:30:49.349Z,0
2018-01-06T02:31:50.045Z,0
2018-01-06T02:32:50.707Z,0
2018-01-06T02:33:51.368Z,0
2018-01-06T02:34:52.031Z,0
2018-01-06T02:35:52.697Z,0
2018-01-06T02:36:53.393Z,0
2018-01-06T02:37:54.055Z,0
2018-01-06T02:38:54.717Z,0
2018-01-06T02:39:55.379Z,0
2018-01-06T02:40:56.040Z,0
2018-01-06T02:41:56.702Z,0
2018-01-06T02:42:57.365Z,0
2018-01-06T02:43:58.026Z,0
2018-01-06T02:44:58.688Z,0
2018-01-06T02:45:59.350Z,0
2018-01-06T02:47:00.018Z,0
2018-01-06T02:48:00.722Z,0
2018-01-06T02:49:01.384Z,0
2018-01-06T02:50:02.046Z,0
2018-01-06T02:51:02.708Z,0
2018-01-06T02:52:03.368Z,0
2018-01-06T02:53:04.029Z,0
2018-01-06T02:54:04.690Z,0
2018-01-06T02:55:05.351Z,0
2018-01-06T02:56:06.016Z,0
2018-01-06T02:57:06.673Z,0
2018-01-06T02:58:07.339Z,0
2018-01-06T02:59:07.996Z,0
2018-01-06T03:00:08.657Z,0
2018-01-06T03:01:09.317Z,0
2018-01-06T03:02:09.977Z,0
2018-01-06T03:03:10.638Z,0
2018-01-06T03:04:11.299Z,0
2018-01-06T03:05:11.959Z,0
2018-01-06T03:06:12.620Z,0
2018-01-06T03:07:13.280Z,0
2018-01-06T03:08:13.941Z,0
2018-01-06T03:09:14.603Z,0
2018-01-06T03:10:15.264Z,0
2018-01-06T03:11:15.925Z,0
2018-01-06T03:12:16.586Z,0
2018-01-06T03:13:17.247Z,0
2018-01-06T03:14:17.909Z,0
2018-01-06T03:15:18.573Z,0
2018-01-06T03:16:19.267Z,0
2018-01-06T03:17:19.929Z,0
2018-01-06T03:18:20.641Z,0
2018-01-06T03:19:21.301Z,0
2018-01-06T03:20:21.963Z,0
2018-01-06T03:21:22.625Z,0
2018-01-06T03:22:23.284Z,0
2018-01-06T03:23:23.946Z,0
2018-01-06T03:24:24.606Z,0
2018-01-06T03:25:25.268Z,0
2018-01-06T03:26:25.929Z,0
2018-01-06T03:27:26.590Z,0
2018-01-06T03:28:27.251Z,0
2018-01-06T03:29:27.912Z,0
2018-01-06T03:30:28.574Z,0
2018-01-06T03:31:29.235Z,0
2018-01-06T03:32:29.896Z,0
2018-01-06T03:33:30.557Z,0
2018-01-06T03:34:31.216Z,0
2018-01-06T03:35:31.879Z,0
2018-01-06T03:36:32.541Z,0
2018-01-06T03:37:33.204Z,0
2018-01-06T03:38:33.864Z,0
2018-01-06T03:39:34.522Z,0
2018-01-06T03:40:35.183Z,0
2018-01-06T03:41:35.844Z,0
2018-01-06T03:42:36.505Z,0
2018-01-06T03:43:37.166Z,0
2018-01-06T03:44:37.827Z,0
2018-01-06T03:45:38.488Z,0
2018-01-06T03:46:39.187Z,0
2018-01-06T03:47:39.849Z,0
2018-01-06T03:48:40.510Z,0
2018-01-06T03:49:41.232Z,0
2018-01-06T03:50:41.835Z,0
2018-01-06T03:51:42.496Z,0
2018-01-06T03:52:43.157Z,0
2018-01-06T03:53:43.818Z,0
2018-01-06T03:54:44.479Z,0
2018-01-06T03:55:45.140Z,0
2018-01-06T03:56:45.836Z,0
2018-01-06T03:57:46.510Z,0
2018-01-06T03:58:47.214Z,0
2018-01-06T03:59:47.909Z,0
2018-01-06T04:00:48.570Z,0
2018-01-06T04:01:49.232Z,0
2018-01-06T04:02:49.895Z,0
2018-01-06T04:03:50.592Z,0
2018-01-06T04:04:51.256Z,0
2018-01-06T04:05:51.916Z,0
2018-01-06T04:06:52.577Z,0
2018-01-06T04:07:53.238Z,0
2018-01-06T04:08:53.900Z,0
2018-01-06T04:09:54.562Z,0
2018-01-06T04:10:55.224Z,0
2018-01-06T04:11:55.885Z,0
2018-01-06T04:12:56.547Z,0
2018-01-06T04:13:57.208Z,0
2018-01-06T04:14:57.869Z,0
2018-01-06T04:15:58.534Z,0
2018-01-06T04:16:59.190Z,0
2018-01-06T04:17:59.851Z,0
2018-01-06T04:19:00.513Z,0
2018-01-06T04:20:01.174Z,0
2018-01-06T04:21:01.875Z,0
2018-01-06T04:22:02.495Z,0
2018-01-06T04:23:03.158Z,0
2018-01-06T04:24:03.819Z,0
2018-01-06T04:25:04.479Z,0
2018-01-06T04:26:05.141Z,0
2018-01-06T04:27:05.801Z,0
2018-01-06T04:28:06.466Z,0
2018-01-06T04:29:07.122Z,0
2018-01-06T04:30:07.783Z,0
2018-01-06T04:31:08.444Z,0
2018-01-06T04:32:09.104Z,0
2018-01-06T04:33:09.767Z,0
2018-01-06T04:34:10.428Z,0
2018-01-06T04:35:11.088Z,0
2018-01-06T04:36:11.751Z,0
2018-01-06T04:37:12.409Z,0
2018-01-06T04:38:13.070Z,0
2018-01-06T04:39:13.730Z,0
2018-01-06T04:40:14.391Z,0
2018-01-06T04:41:15.055Z,0
2018-01-06T04:42:15.714Z,0
2018-01-06T04:43:16.374Z,0
2018-01-06T04:44:17.034Z,0
2018-01-06T04:45:17.695Z,0
2018-01-06T04:46:18.356Z,0
2018-01-06T04:47:19.017Z,0
2018-01-06T04:48:19.678Z,0
2018-01-06T04:49:20.389Z,0
2018-01-06T04:50:21.054Z,0
2018-01-06T04:51:21.745Z,0
2018-01-06T04:52:22.407Z,0
2018-01-06T04:53:23.068Z,0
2018-01-06T04:54:23.729Z,0
2018-01-06T04:55:24.390Z,0
2018-01-06T04:56:25.051Z,0
2018-01-06T04:57:25.713Z,0
2018-01-06T04:58:26.371Z,0
2018-01-06T04:59:27.032Z,0
2018-01-06T05:00:27.692Z,0
2018-01-06T05:01:28.354Z,0
2018-01-06T05:02:29.014Z,0
2018-01-06T05:03:29.675Z,0
2018-01-06T05:04:30.337Z,0
2018-01-06T05:05:30.997Z,0
2018-01-06T05:06:31.658Z,0
2018-01-06T05:07:32.319Z,0
2018-01-06T05:08:32.980Z,0
2018-01-06T05:09:33.640Z,0
2018-01-06T05:10:34.301Z,0
2018-01-06T05:11:34.962Z,0
2018-01-06T05:12:35.622Z,0
2018-01-06T05:13:36.284Z,0
2018-01-06T05:14:36.945Z,0
2018-01-06T05:15:37.605Z,0
2018-01-06T05:16:38.266Z,0
2018-01-06T05:17:38.927Z,0
2018-01-06T05:18:39.587Z,0
2018-01-06T05:19:40.250Z,0
2018-01-06T05:20:40.910Z,0
2018-01-06T05:21:41.569Z,0
2018-01-06T05:22:42.231Z,0
2018-01-06T05:23:42.891Z,0
2018-01-06T05:24:43.552Z,0
2018-01-06T05:25:44.212Z,0
2018-01-06T05:26:44.875Z,0
2018-01-06T05:27:45.535Z,0
2018-01-06T05:28:46.195Z,0
2018-01-06T05:29:46.856Z,0
2018-01-06T05:30:47.516Z,0
2018-01-06T05:31:48.177Z,0
2018-01-06T05:32:48.837Z,0
2018-01-06T05:33:49.498Z,0
2018-01-06T05:34:50.159Z,0
2018-01-06T05:35:50.819Z,0
2018-01-06T05:36:51.480Z,0
2018-01-06T05:37:52.145Z,0
2018-01-06T05:38:52.801Z,0
2018-01-06T05:39:53.461Z,0
2018-01-06T05:40:54.121Z,0
2018-01-06T05:41:54.783Z,0
2018-01-06T05:42:55.445Z,0
2018-01-06T05:43:56.104Z,0
2018-01-06T05:44:56.764Z,0
2018-01-06T05:45:57.425Z,0
2018-01-06T05:46:58.087Z,0
2018-01-06T05:47:58.746Z,0
2018-01-06T05:48:59.406Z,0
2018-01-06T05:50:00.068Z,0
2018-01-06T05:51:00.764Z,0
2018-01-06T05:52:01.426Z,0
2018-01-06T05:53:02.087Z,0
2018-01-06T05:54:02.749Z,0
2018-01-06T05:55:03.435Z,0
2018-01-06T05:56:04.070Z,0
2018-01-06T05:57:04.732Z,0
2018-01-06T05:58:05.393Z,0
2018-01-06T05:59:06.054Z,0
2018-01-06T06:00:06.714Z,0
2018-01-06T06:01:07.376Z,0
2018-01-06T06:02:08.038Z,0
2018-01-06T06:03:08.696Z,0
2018-01-06T06:04:09.358Z,0
2018-01-06T06:05:10.019Z,0
2018-01-06T06:06:10.680Z,0
2018-01-06T06:07:11.341Z,0
2018-01-06T06:08:12.001Z,0
2018-01-06T06:09:12.663Z,0
2018-01-06T06:10:13.373Z,0
2018-01-06T06:11:14.033Z,0
2018-01-06T06:12:14.694Z,0
2018-01-06T06:13:15.353Z,0
2018-01-06T06:14:16.013Z,0
2018-01-06T06:15:16.674Z,0
2018-01-06T06:16:17.334Z,0
2018-01-06T06:17:17.994Z,0
2018-01-06T06:18:18.656Z,0
2018-01-06T06:19:19.315Z,0
2018-01-06T06:20:19.976Z,0
2018-01-06T06:21:20.637Z,0
2018-01-06T06:22:21.298Z,0
2018-01-06T06:23:21.959Z,0
2018-01-06T06:24:22.620Z,0
2018-01-06T06:25:23.280Z,0
2018-01-06T06:26:23.940Z,0
2018-01-06T06:27:24.602Z,0
2018-01-06T06:28:25.263Z,0
2018-01-06T06:29:25.922Z,0
2018-01-06T06:30:26.584Z,0
2018-01-06T06:31:27.246Z,0
2018-01-06T06:32:27.906Z,0
2018-01-06T06:33:28.565Z,0
2018-01-06T06:34:29.226Z,0
2018-01-06T06:35:29.888Z,0
2018-01-06T06:36:30.587Z,0
2018-01-06T06:37:31.283Z,0
2018-01-06T06:38:31.945Z,0
2018-01-06T06:39:32.606Z,0
2018-01-06T06:40:33.268Z,0
2018-01-06T06:41:33.929Z,0
2018-01-06T06:42:34.592Z,0
2018-01-06T06:43:35.253Z,4
2018-01-06T06:44:35.915Z,4
2018-01-06T06:45:36.576Z,0
2018-01-06T06:46:37.236Z,4
2018-01-06T06:47:37.898Z,4
2018-01-06T06:48:38.559Z,4
2018-01-06T06:49:39.221Z,4
2018-01-06T06:50:39.881Z,8
2018-01-06T06:51:40.540Z,8
2018-01-06T06:52:41.201Z,4
2018-01-06T06:53:41.861Z,8
2018-01-06T06:54:42.521Z,8
2018-01-06T06:55:43.182Z,12
2018-01-06T06:56:43.844Z,8
2018-01-06T06:57:44.505Z,12
2018-01-06T06:58:45.165Z,12
2018-01-06T06:59:45.825Z,12
2018-01-06T07:00:46.488Z,12
2018-01-06T07:01:47.149Z,12
2018-01-06T07:02:47.810Z,12
2018-01-06T07:03:48.472Z,12
2018-01-06T07:04:49.133Z,12
2018-01-06T07:05:49.794Z,16
2018-01-06T07:06:50.455Z,20
2018-01-06T07:07:51.116Z,28
2018-01-06T07:08:51.815Z,32
2018-01-06T07:09:52.474Z,32
2018-01-06T07:10:53.136Z,36
2018-01-06T07:11:53.797Z,32
2018-01-06T07:12:54.459Z,40
2018-01-06T07:13:55.120Z,44
2018-01-06T07:14:55.781Z,40
2018-01-06T07:15:56.443Z,40
2018-01-06T07:16:57.104Z,40
2018-01-06T07:17:57.764Z,44
2018-01-06T07:18:58.426Z,52
2018-01-06T07:19:59.087Z,64
2018-01-06T07:20:59.749Z,72
2018-01-06T07:22:00.407Z,84
2018-01-06T07:23:01.070Z,96
2018-01-06T07:24:01.773Z,112
2018-01-06T07:25:02.398Z,132
2018-01-06T07:26:03.112Z,140
2018-01-06T07:27:03.776Z,156
2018-01-06T07:28:04.440Z,172
2018-01-06T07:29:05.103Z,188
2018-01-06T07:30:05.767Z,208
2018-01-06T07:31:06.431Z,212
2018-01-06T07:32:07.093Z,220
2018-01-06T07:33:07.756Z,240
2018-01-06T07:34:08.419Z,256
2018-01-06T07:35:09.082Z,276
2018-01-06T07:36:09.795Z,296
2018-01-06T07:37:10.459Z,324
2018-01-06T07:38:11.122Z,352
2018-01-06T07:39:11.786Z,372
2018-01-06T07:40:12.487Z,384
2018-01-06T07:41:13.200Z,404
2018-01-06T07:42:13.865Z,448
2018-01-06T07:43:14.529Z,452
2018-01-06T07:44:15.194Z,480
2018-01-06T07:45:15.861Z,500
2018-01-06T07:46:16.527Z,512
2018-01-06T07:47:17.193Z,516
2018-01-06T07:48:17.858Z,528
2018-01-06T07:49:18.523Z,544
2018-01-06T07:50:19.191Z,548
2018-01-06T07:51:19.889Z,532
2018-01-06T07:52:20.554Z,524
2018-01-06T07:53:21.220Z,540
2018-01-06T07:54:21.882Z,572
2018-01-06T07:55:22.546Z,604
2018-01-06T07:56:23.210Z,628
2018-01-06T07:57:23.874Z,636
2018-01-06T07:58:24.540Z,660
2018-01-06T07:59:25.204Z,684
2018-01-06T08:00:25.868Z,724
2018-01-06T08:01:26.533Z,744
2018-01-06T08:02:27.198Z,772
2018-01-06T08:03:27.862Z,792
2018-01-06T08:04:28.526Z,812
2018-01-06T08:05:29.195Z,800
2018-01-06T08:06:29.893Z,776
2018-01-06T08:07:30.559Z,776
2018-01-06T08:08:31.224Z,828
2018-01-06T08:09:31.888Z,880
2018-01-06T08:10:32.554Z,920
2018-01-06T08:11:33.220Z,976
2018-01-06T08:12:33.889Z,1016
2018-01-06T08:13:34.595Z,1032
2018-01-06T08:14:35.259Z,1052
2018-01-06T08:15:35.923Z,1092
2018-01-06T08:16:36.590Z,1152
2018-01-06T08:17:37.257Z,1224
2018-01-06T08:18:37.922Z,1300
2018-01-06T08:19:38.588Z,1328
2018-01-06T08:20:39.253Z,1364
2018-01-06T08:21:39.920Z,1400
2018-01-06T08:22:40.587Z,1420
2018-01-06T08:23:41.292Z,1464
2018-01-06T08:24:41.992Z,1516
2018-01-06T08:25:42.656Z,1524
2018-01-06T08:26:43.322Z,1540
2018-01-06T08:27:43.988Z,1572
2018-01-06T08:28:44.656Z,1616
2018-01-06T08:29:45.320Z,1676
2018-01-06T08:30:45.986Z,1732
2018-01-06T08:31:46.653Z,1792
2018-01-06T08:32:47.324Z,1876
2018-01-06T08:33:48.024Z,1952
2018-01-06T08:34:48.690Z,2032
2018-01-06T08:35:49.361Z,2100
2018-01-06T08:36:50.022Z,2204
2018-01-06T08:37:50.688Z,2228
2018-01-06T08:38:51.353Z,2212
2018-01-06T08:39:52.021Z,2196
2018-01-06T08:40:52.720Z,2232
2018-01-06T08:41:53.385Z,2248
2018-01-06T08:42:54.049Z,2244
2018-01-06T08:43:54.716Z,2256
2018-01-06T08:44:55.382Z,2292
2018-01-06T08:45:56.048Z,2348
2018-01-06T08:46:56.713Z,2436
2018-01-06T08:47:57.380Z,2512
2018-01-06T08:48:58.046Z,2580
2018-01-06T08:49:58.709Z,2656
2018-01-06T08:50:59.376Z,2696
2018-01-06T08:52:00.127Z,2752
2018-01-06T08:53:00.794Z,2772
2018-01-06T08:54:01.461Z,2776
2018-01-06T08:55:02.166Z,2828
2018-01-06T08:56:02.831Z,2912
2018-01-06T08:57:03.497Z,2860
2018-01-06T08:58:04.163Z,2792
2018-01-06T08:59:04.829Z,2800
2018-01-06T09:00:05.531Z,2916
2018-01-06T09:01:06.232Z,3140
2018-01-06T09:02:06.900Z,3152
2018-01-06T09:03:07.564Z,2956
2018-01-06T09:04:08.229Z,2796
2018-01-06T09:05:08.897Z,2672
2018-01-06T09:06:09.564Z,2716
2018-01-06T09:07:10.234Z,2656
2018-01-06T09:08:10.896Z,2476
2018-01-06T09:09:11.564Z,2408
2018-01-06T09:10:12.266Z,2348
2018-01-06T09:11:12.932Z,2396
2018-01-06T09:12:13.648Z,2556
2018-01-06T09:13:14.314Z,2712
2018-01-06T09:14:14.982Z,2928
2018-01-06T09:15:15.649Z,2952
2018-01-06T09:16:16.316Z,2892
2018-01-06T09:17:16.986Z,2860
2018-01-06T09:18:17.688Z,2936
2018-01-06T09:19:18.354Z,2488
2018-01-06T09:20:19.070Z,2248
2018-01-06T09:21:19.687Z,2236
2018-01-06T09:22:20.403Z,2224
2018-01-06T09:23:21.070Z,2208
2018-01-06T09:24:21.740Z,2248
2018-01-06T09:25:22.403Z,2196
2018-01-06T09:26:23.070Z,2240
2018-01-06T09:27:23.739Z,2336
2018-01-06T09:28:24.402Z,2412
2018-01-06T09:29:25.068Z,2492
2018-01-06T09:30:25.733Z,2660
2018-01-06T09:31:26.401Z,3004
2018-01-06T09:32:27.107Z,3496
2018-01-06T09:33:27.811Z,3100
2018-01-06T09:34:28.480Z,2800
2018-01-06T09:35:29.148Z,2624
2018-01-06T09:36:29.816Z,2620
2018-01-06T09:37:30.485Z,2648
2018-01-06T09:38:31.152Z,2712
2018-01-06T09:39:31.819Z,2716
2018-01-06T09:40:32.486Z,2624
2018-01-06T09:41:33.156Z,2484
2018-01-06T09:42:33.824Z,2380
2018-01-06T09:43:34.492Z,2408
2018-01-06T09:44:35.161Z,2404
2018-01-06T09:45:35.828Z,2112
2018-01-06T09:46:36.533Z,2412
2018-01-06T09:47:37.283Z,2168
2018-01-06T09:48:37.908Z,1968
2018-01-06T09:49:38.576Z,1860
2018-01-06T09:50:39.245Z,1816
2018-01-06T09:51:39.914Z,1864
2018-01-06T09:52:40.581Z,1792
2018-01-06T09:53:41.250Z,1772
2018-01-06T09:54:41.955Z,1776
2018-01-06T09:55:42.623Z,1760
2018-01-06T09:56:43.294Z,1776
2018-01-06T09:57:43.963Z,1796
2018-01-06T09:58:44.666Z,1840
2018-01-06T09:59:45.335Z,1928
2018-01-06T10:00:46.004Z,2000
2018-01-06T10:01:46.673Z,2020
2018-01-06T10:02:47.341Z,2068
2018-01-06T10:03:48.010Z,2172
2018-01-06T10:04:48.676Z,2228
2018-01-06T10:05:49.343Z,2408
2018-01-06T10:06:50.013Z,2620
2018-01-06T10:07:50.733Z,2996
2018-01-06T10:08:51.403Z,3224
2018-01-06T10:09:52.108Z,3296
2018-01-06T10:10:52.776Z,3432
2018-01-06T10:11:53.446Z,3508
2018-01-06T10:12:54.117Z,3432
2018-01-06T10:13:54.789Z,3400
2018-01-06T10:14:55.454Z,2788
2018-01-06T10:15:56.123Z,2280
2018-01-06T10:16:56.792Z,2048
2018-01-06T10:17:57.560Z,2056
2018-01-06T10:18:58.165Z,2124
2018-01-06T10:19:58.832Z,2172
2018-01-06T10:20:59.507Z,2148
2018-01-06T10:22:00.172Z,2176
2018-01-06T10:23:00.839Z,2248
2018-01-06T10:24:01.507Z,2256
2018-01-06T10:25:02.186Z,2228
2018-01-06T10:26:02.846Z,2228
2018-01-06T10:27:03.514Z,2208
2018-01-06T10:28:04.184Z,2216
2018-01-06T10:29:04.861Z,2252
2018-01-06T10:30:05.528Z,2288
2018-01-06T10:31:06.197Z,2328
2018-01-06T10:32:06.864Z,2360
2018-01-06T10:33:07.582Z,2364
2018-01-06T10:34:08.252Z,2372
2018-01-06T10:35:08.921Z,2368
2018-01-06T10:36:09.589Z,2396
2018-01-06T10:37:10.258Z,2472
2018-01-06T10:38:10.926Z,2576
2018-01-06T10:39:11.595Z,2688
2018-01-06T10:40:12.263Z,2708
2018-01-06T10:41:12.933Z,2716
2018-01-06T10:42:13.602Z,2736
2018-01-06T10:43:14.270Z,2716
2018-01-06T10:44:14.939Z,2684
2018-01-06T10:45:15.607Z,2600
2018-01-06T10:46:16.275Z,2608
2018-01-06T10:47:16.947Z,2680
2018-01-06T10:48:17.613Z,2768
2018-01-06T10:49:18.282Z,2872
2018-01-06T10:50:18.950Z,2968
2018-01-06T10:51:19.620Z,3052
2018-01-06T10:52:20.288Z,3152
2018-01-06T10:53:21.008Z,3288
2018-01-06T10:54:21.680Z,3456
2018-01-06T10:55:22.349Z,3644
2018-01-06T10:56:23.018Z,3812
2018-01-06T10:57:23.688Z,3944
2018-01-06T10:58:24.355Z,4060
2018-01-06T10:59:25.024Z,4156
2018-01-06T11:00:25.696Z,4236
2018-01-06T11:01:26.364Z,4324
2018-01-06T11:02:27.036Z,4244
2018-01-06T11:03:27.704Z,4188
2018-01-06T11:04:28.375Z,4120
2018-01-06T11:05:29.051Z,4104
2018-01-06T11:06:29.755Z,4080
2018-01-06T11:07:30.426Z,4024
2018-01-06T11:08:31.094Z,3972
2018-01-06T11:09:31.764Z,3928
2018-01-06T11:10:32.434Z,3888
2018-01-06T11:11:33.106Z,3840
2018-01-06T11:12:33.774Z,3796
2018-01-06T11:13:34.495Z,3804
2018-01-06T11:14:35.165Z,3844
2018-01-06T11:15:35.834Z,3880
2018-01-06T11:16:36.504Z,3900
2018-01-06T11:17:37.174Z,3852
2018-01-06T11:18:37.846Z,3704
2018-01-06T11:19:38.516Z,3616
2018-01-06T11:20:39.188Z,3660
2018-01-06T11:21:39.857Z,3768
2018-01-06T11:22:40.550Z,3828
2018-01-06T11:23:41.250Z,3812
2018-01-06T11:24:41.920Z,3728
2018-01-06T11:25:42.590Z,3624
2018-01-06T11:26:43.260Z,3524
2018-01-06T11:27:43.930Z,3368
2018-01-06T11:28:44.610Z,3220
2018-01-06T11:29:45.274Z,3124
2018-01-06T11:30:45.944Z,3072
2018-01-06T11:31:46.614Z,3020
2018-01-06T11:32:47.284Z,2944
2018-01-06T11:33:47.952Z,2812
2018-01-06T11:34:48.620Z,2664
2018-01-06T11:35:49.291Z,2516
2018-01-06T11:36:49.963Z,2328
2018-01-06T11:37:50.632Z,2152
2018-01-06T11:38:51.302Z,2068
2018-01-06T11:39:51.971Z,2068
2018-01-06T11:40:52.640Z,2064
2018-01-06T11:41:53.313Z,2060
2018-01-06T11:42:53.979Z,2088
2018-01-06T11:43:54.651Z,2124
2018-01-06T11:44:55.356Z,2156
2018-01-06T11:45:56.025Z,2176
2018-01-06T11:46:56.694Z,2188
2018-01-06T11:47:57.370Z,2204
2018-01-06T11:48:58.033Z,2228
2018-01-06T11:49:58.702Z,2248
2018-01-06T11:50:59.414Z,2252
2018-01-06T11:52:00.116Z,2228
2018-01-06T11:53:00.787Z,2272
2018-01-06T11:54:01.458Z,2360
2018-01-06T11:55:02.127Z,2408
2018-01-06T11:56:02.800Z,2380
2018-01-06T11:57:03.466Z,2304
2018-01-06T11:58:04.135Z,2180
2018-01-06T11:59:04.804Z,2036
2018-01-06T12:00:05.475Z,1956
2018-01-06T12:01:06.143Z,1988
2018-01-06T12:02:06.814Z,2088
2018-01-06T12:03:07.484Z,2164
2018-01-06T12:04:08.153Z,2152
2018-01-06T12:05:08.823Z,2080
2018-01-06T12:06:09.494Z,2024
2018-01-06T12:07:10.162Z,2020
2018-01-06T12:08:10.831Z,2072
2018-01-06T12:09:11.501Z,2152
2018-01-06T12:10:12.209Z,2244
2018-01-06T12:11:12.874Z,2348
2018-01-06T12:12:13.544Z,2448
2018-01-06T12:13:14.212Z,2504
2018-01-06T12:14:14.881Z,2464
2018-01-06T12:15:15.602Z,2356
2018-01-06T12:16:16.222Z,2252
2018-01-06T12:17:16.890Z,2192
2018-01-06T12:18:17.565Z,2184
2018-01-06T12:19:18.230Z,2216
2018-01-06T12:20:18.899Z,2240
2018-01-06T12:21:19.567Z,2220
2018-01-06T12:22:20.236Z,2144
2018-01-06T12:23:20.907Z,2044
2018-01-06T12:24:21.625Z,1928
2018-01-06T12:25:22.295Z,1848
2018-01-06T12:26:23.004Z,1796
2018-01-06T12:27:23.671Z,1772
2018-01-06T12:28:24.338Z,1752
2018-01-06T12:29:25.007Z,1728
2018-01-06T12:30:25.676Z,1688
2018-01-06T12:31:26.348Z,1640
2018-01-06T12:32:27.021Z,1576
2018-01-06T12:33:27.687Z,1520
2018-01-06T12:34:28.355Z,1504
2018-01-06T12:35:29.023Z,1516
2018-01-06T12:36:29.700Z,1552
2018-01-06T12:37:30.364Z,1616
2018-01-06T12:38:31.037Z,1668
2018-01-06T12:39:31.753Z,1712
2018-01-06T12:40:32.421Z,1720
2018-01-06T12:41:33.090Z,1712
2018-01-06T12:42:33.760Z,1704
2018-01-06T12:43:34.431Z,1708
2018-01-06T12:44:35.099Z,1716
2018-01-06T12:45:35.771Z,1732
2018-01-06T12:46:36.476Z,1740
2018-01-06T12:47:37.146Z,1732
2018-01-06T12:48:37.814Z,1696
2018-01-06T12:49:38.483Z,1636
2018-01-06T12:50:39.152Z,1580
2018-01-06T12:51:39.821Z,1560
2018-01-06T12:52:40.490Z,1596
2018-01-06T12:53:41.160Z,1640
2018-01-06T12:54:41.828Z,1648
2018-01-06T12:55:42.496Z,1624
2018-01-06T12:56:43.166Z,1596
2018-01-06T12:57:43.836Z,1592
2018-01-06T12:58:44.507Z,1584
2018-01-06T12:59:45.175Z,1580
2018-01-06T13:00:45.844Z,1564
2018-01-06T13:01:46.514Z,1552
2018-01-06T13:02:47.182Z,1552
2018-01-06T13:03:47.849Z,1552
2018-01-06T13:04:48.523Z,1552
2018-01-06T13:05:49.189Z,1548
2018-01-06T13:06:49.859Z,1552
2018-01-06T13:07:50.564Z,1556
2018-01-06T13:08:51.233Z,1556
2018-01-06T13:09:51.901Z,1548
2018-01-06T13:10:52.567Z,1540
2018-01-06T13:11:53.240Z,1544
2018-01-06T13:12:53.944Z,1544
2018-01-06T13:13:54.614Z,1536
2018-01-06T13:14:55.282Z,1528
2018-01-06T13:15:55.951Z,1532
2018-01-06T13:16:56.620Z,1540
2018-01-06T13:17:57.288Z,1564
2018-01-06T13:18:57.958Z,1584
2018-01-06T13:19:58.626Z,1584
2018-01-06T13:20:59.297Z,1568
2018-01-06T13:21:59.965Z,1536
2018-01-06T13:23:00.675Z,1500
2018-01-06T13:24:01.302Z,1476
2018-01-06T13:25:01.972Z,1460
2018-01-06T13:26:02.639Z,1464
2018-01-06T13:27:03.308Z,1472
2018-01-06T13:28:03.977Z,1484
2018-01-06T13:29:04.646Z,1500
2018-01-06T13:30:05.354Z,1512
2018-01-06T13:31:06.053Z,1508
2018-01-06T13:32:06.690Z,1492
2018-01-06T13:33:07.361Z,1472
2018-01-06T13:34:08.028Z,1448
2018-01-06T13:35:08.696Z,1432
2018-01-06T13:36:09.366Z,1420
2018-01-06T13:37:10.036Z,1400
2018-01-06T13:38:10.703Z,1368
2018-01-06T13:39:11.373Z,1360
2018-01-06T13:40:12.041Z,1368
2018-01-06T13:41:12.710Z,1400
2018-01-06T13:42:13.379Z,1436
2018-01-06T13:43:14.050Z,1468
2018-01-06T13:44:14.719Z,1516
2018-01-06T13:45:15.388Z,1564
2018-01-06T13:46:16.056Z,1604
2018-01-06T13:47:16.724Z,1628
2018-01-06T13:48:17.393Z,1656
2018-01-06T13:49:18.098Z,1676
2018-01-06T13:50:18.766Z,1664
2018-01-06T13:51:19.435Z,1628
2018-01-06T13:52:20.104Z,1560
2018-01-06T13:53:20.772Z,1488
2018-01-06T13:54:21.442Z,1420
2018-01-06T13:55:22.160Z,1352
2018-01-06T13:56:22.828Z,1276
2018-01-06T13:57:23.498Z,1200
2018-01-06T13:58:24.167Z,1128
2018-01-06T13:59:24.836Z,1064
2018-01-06T14:00:25.506Z,1032
2018-01-06T14:01:26.175Z,1016
2018-01-06T14:02:26.843Z,1000
2018-01-06T14:03:27.512Z,976
2018-01-06T14:04:28.180Z,936
2018-01-06T14:05:28.848Z,896
2018-01-06T14:06:29.515Z,864
2018-01-06T14:07:30.183Z,852
2018-01-06T14:08:30.850Z,856
2018-01-06T14:09:31.518Z,868
2018-01-06T14:10:32.187Z,880
2018-01-06T14:11:32.851Z,884
2018-01-06T14:12:33.521Z,884